Time;durP1;ratioP1;P1;durP2;ratioP2;P2;SDS_P1;SDS_P2;PMS_P1;PMS_P2;Temp;Humidity;BMP_temperature;BMP_pressure;BME280_temperature;BME280_humidity;BME280_pressure;Samples;Min_cycle;Max_cycle;Signal;HPM_P1;HPM_P2
2021/01/01 00:00:15;;;;;;;40.30;26.52;;;;;;;5.56;100.00;99114.62;1780133;79;21562;-68
2021/01/01 00:02:43;;;;;;;36.25;22.05;;;;;;;5.59;100.00;99116.81;1731421;82;21171;-69
2021/01/01 00:05:17;;;;;;;41.30;25.30;;;;;;;5.58;100.00;99119.19;1780065;80;21576;-69
2021/01/01 00:07:45;;;;;;;34.33;22.07;;;;;;;5.59;100.00;99108.81;1731268;82;21370;-69
2021/01/01 00:10:14;;;;;;;35.30;21.97;;;;;;;5.56;100.00;99107.40;1744210;81;21116;-69
2021/01/01 00:12:42;;;;;;;40.45;23.60;;;;;;;5.52;100.00;99112.91;1791661;80;20997;-70
2021/01/01 00:15:12;;;;;;;44.83;26.23;;;;;;;5.52;100.00;99110.77;1811728;79;21094;-69
2021/01/01 00:17:40;;;;;;;41.80;21.40;;;;;;;5.49;100.00;99105.38;1790775;80;21121;-69
2021/01/01 00:20:12;;;;;;;41.40;25.35;;;;;;;5.49;100.00;99103.23;1799026;79;21426;-69
2021/01/01 00:22:42;;;;;;;37.28;22.52;;;;;;;5.49;100.00;99108.05;1786369;80;21110;-69
2021/01/01 00:25:10;;;;;;;39.53;22.00;;;;;;;5.49;100.00;99108.05;1790419;80;21004;-70
2021/01/01 00:27:39;;;;;;;44.33;26.50;;;;;;;5.54;100.00;99098.02;1765492;80;21213;-70
2021/01/01 00:30:10;;;;;;;43.15;27.37;;;;;;;5.58;100.00;99103.17;1760910;81;21119;-68
2021/01/01 00:32:42;;;;;;;41.55;25.25;;;;;;;5.62;100.00;99095.00;1736966;81;21214;-69
2021/01/01 00:35:11;;;;;;;48.92;27.17;;;;;;;5.65;100.00;99094.03;1761561;80;21009;-69
2021/01/01 00:37:39;;;;;;;39.92;24.02;;;;;;;5.64;100.00;99092.41;1780087;80;21146;-72
2021/01/01 00:40:10;;;;;;;49.25;27.52;;;;;;;5.64;100.00;99080.92;1731099;82;21158;-71
2021/01/01 00:42:37;;;;;;;40.10;25.45;;;;;;;5.66;100.00;99079.63;1750547;81;21033;-70
2021/01/01 00:45:06;;;;;;;32.90;19.98;;;;;;;5.68;100.00;99082.07;1800878;79;22250;-66
2021/01/01 00:47:34;;;;;;;46.30;26.07;;;;;;;5.74;100.00;99077.66;1763011;81;21079;-67
2021/01/01 00:50:04;;;;;;;37.23;23.67;;;;;;;5.77;100.00;99076.66;1788080;78;21118;-68
2021/01/01 00:52:36;;;;;;;33.42;20.05;;;;;;;5.85;100.00;99068.30;1803614;78;20986;-66
2021/01/01 00:55:07;;;;;;;40.38;25.50;;;;;;;5.82;100.00;99072.78;1795750;78;21205;-67
2021/01/01 00:57:35;;;;;;;38.13;24.67;;;;;;;5.81;100.00;99076.48;1819358;78;22248;-67
2021/01/01 01:00:06;;;;;;;43.40;25.30;;;;;;;5.81;100.00;99068.48;1813508;78;21216;-67
2021/01/01 01:02:33;;;;;;;31.17;21.60;;;;;;;5.84;100.00;99065.88;1814072;78;20943;-69
2021/01/01 01:05:01;;;;;;;37.45;23.95;;;;;;;5.86;100.00;99073.11;1820150;78;21138;-68
2021/01/01 01:07:28;;;;;;;228.75;145.02;;;;;;;5.86;100.00;99067.26;1820208;78;21188;-67
2021/01/01 01:09:55;;;;;;;271.52;209.95;;;;;;;5.87;100.00;99067.58;1818895;78;21223;-71
2021/01/01 01:12:29;;;;;;;92.85;59.50;;;;;;;5.93;100.00;99064.50;1763881;81;21167;-75
2021/01/01 01:14:57;;;;;;;45.10;31.37;;;;;;;5.92;100.00;99057.02;1797817;78;21117;-70
2021/01/01 01:17:24;;;;;;;42.35;25.25;;;;;;;5.97;100.00;99049.64;1814092;78;21031;-71
2021/01/01 01:19:52;;;;;;;35.28;23.10;;;;;;;6.01;100.00;99044.92;1814224;79;21524;-70
2021/01/01 01:22:20;;;;;;;36.05;23.95;;;;;;;6.04;100.00;99052.45;1763851;81;21257;-70
2021/01/01 01:24:49;;;;;;;39.45;23.07;;;;;;;6.00;100.00;99052.64;1820137;78;21141;-74
2021/01/01 01:27:16;;;;;;;36.70;21.77;;;;;;;5.94;100.00;99041.59;1820165;78;21634;-73
2021/01/01 01:29:43;;;;;;;33.38;22.55;;;;;;;5.91;100.00;99049.23;1818459;78;21114;-70
2021/01/01 01:32:11;;;;;;;35.73;20.82;;;;;;;5.93;100.00;99035.96;1812468;78;21642;-70
2021/01/01 01:34:38;;;;;;;34.70;22.45;;;;;;;5.97;100.00;99034.44;1788985;78;21150;-70
2021/01/01 01:37:08;;;;;;;40.15;25.12;;;;;;;5.95;100.00;99026.36;1815966;78;21599;-68
2021/01/01 01:39:35;;;;;;;30.35;17.90;;;;;;;5.87;100.00;99038.75;1787918;80;21117;-69
2021/01/01 01:42:04;;;;;;;31.95;20.60;;;;;;;5.83;100.00;99026.90;1790222;78;22044;-76
2021/01/01 01:44:31;;;;;;;30.97;19.98;;;;;;;5.79;100.00;99029.75;1796726;78;21137;-76
2021/01/01 01:46:59;;;;;;;32.40;20.92;;;;;;;5.78;100.00;99022.27;1787949;80;22241;-74
2021/01/01 01:49:26;;;;;;;38.30;22.42;;;;;;;5.82;100.00;99027.42;1808553;77;21170;-75
2021/01/01 01:51:54;;;;;;;35.63;22.87;;;;;;;5.87;100.00;99025.41;1804551;79;21130;-75
2021/01/01 01:54:21;;;;;;;34.80;20.25;;;;;;;5.90;100.00;99025.73;1777135;80;21102;-75
2021/01/01 01:56:49;;;;;;;34.23;21.97;;;;;;;5.89;100.00;99024.14;1776327;80;21169;-71
2021/01/01 01:59:18;;;;;;;44.33;26.62;;;;;;;5.90;100.00;99029.73;1752256;80;22315;-74
2021/01/01 02:01:46;;;;;;;39.85;25.50;;;;;;;5.87;100.00;99021.41;1778316;79;20979;-71
2021/01/01 02:04:14;;;;;;;40.25;25.75;;;;;;;5.85;100.00;99023.48;1778358;79;21165;-72
2021/01/01 02:06:43;;;;;;;42.50;24.63;;;;;;;5.87;100.00;99017.41;1803892;79;21175;-73
2021/01/01 02:09:14;;;;;;;36.10;23.55;;;;;;;5.87;100.00;99020.88;1806044;79;21141;-72
2021/01/01 02:11:42;;;;;;;39.27;23.67;;;;;;;5.87;100.00;99016.88;1777201;80;21198;-74
2021/01/01 02:14:11;;;;;;;43.83;25.55;;;;;;;5.82;100.00;99000.73;1782839;79;21129;-72
2021/01/01 02:16:39;;;;;;;32.45;19.52;;;;;;;5.85;100.00;99000.80;1796444;79;20968;-74
2021/01/01 02:19:06;;;;;;;41.23;22.65;;;;;;;5.90;100.00;99000.94;1792024;79;21094;-68
2021/01/01 02:21:34;;;;;;;41.00;24.07;;;;;;;5.90;100.00;99002.27;1809269;79;21098;-70
2021/01/01 02:24:01;;;;;;;35.50;22.22;;;;;;;5.91;100.00;99009.20;1786687;79;21516;-70
2021/01/01 02:26:29;;;;;;;46.50;25.25;;;;;;;5.93;100.00;99005.27;1809160;79;21035;-69
2021/01/01 02:28:57;;;;;;;55.23;31.93;;;;;;;5.88;100.00;99000.35;1808109;79;21086;-71
2021/01/01 02:31:24;;;;;;;46.10;27.60;;;;;;;5.80;100.00;98994.84;1799206;79;21998;-71
2021/01/01 02:33:52;;;;;;;41.15;24.32;;;;;;;5.80;100.00;98994.03;1796214;79;21117;-69
2021/01/01 02:36:20;;;;;;;44.03;25.52;;;;;;;5.80;100.00;98996.69;1803089;79;21467;-71
2021/01/01 02:38:47;;;;;;;46.55;27.70;;;;;;;5.84;100.00;98992.50;1794298;79;21162;-68
2021/01/01 02:41:17;;;;;;;54.23;31.12;;;;;;;5.86;100.00;98994.39;1783837;79;21189;-69
2021/01/01 02:43:45;;;;;;;44.93;25.92;;;;;;;5.85;100.00;98993.58;1786490;79;21167;-71
2021/01/01 02:46:12;;;;;;;53.42;30.02;;;;;;;5.81;100.00;98989.77;1809224;79;21102;-70
2021/01/01 02:48:39;;;;;;;55.80;31.95;;;;;;;5.82;100.00;98990.06;1808994;78;21415;-68
2021/01/01 02:51:07;;;;;;;47.73;24.67;;;;;;;5.81;100.00;98987.09;1808904;79;21138;-70
2021/01/01 02:53:34;;;;;;;58.33;27.52;;;;;;;5.78;100.00;98993.44;1806792;79;21575;-69
2021/01/01 02:56:02;;;;;;;57.73;32.17;;;;;;;5.74;100.00;98980.29;1777044;80;21035;-68
2021/01/01 02:58:30;;;;;;;55.85;31.62;;;;;;;5.68;100.00;98977.52;1805531;79;21122;-68
2021/01/01 03:00:58;;;;;;;43.23;25.40;;;;;;;5.74;100.00;98978.44;1808990;79;21346;-71
2021/01/01 03:03:26;;;;;;;52.23;30.62;;;;;;;5.80;100.00;98966.02;1808601;79;21133;-70
2021/01/01 03:05:54;;;;;;;53.65;31.62;;;;;;;5.75;100.00;98970.72;1793423;79;21000;-70
2021/01/01 03:08:21;;;;;;;51.08;30.35;;;;;;;5.78;100.00;98966.76;1784324;79;21902;-69
2021/01/01 03:10:49;;;;;;;60.03;28.75;;;;;;;5.76;100.00;98960.31;1777171;80;21106;-70
2021/01/01 03:13:16;;;;;;;61.10;37.33;;;;;;;5.73;100.00;98946.64;1777096;80;21262;-69
2021/01/01 03:15:43;;;;;;;47.73;28.27;;;;;;;5.71;100.00;98957.02;1795558;79;21176;-69
2021/01/01 03:18:11;;;;;;;56.23;32.15;;;;;;;5.72;100.00;98952.50;1781251;79;21174;-71
2021/01/01 03:20:38;;;;;;;58.38;31.70;;;;;;;5.73;100.00;98946.64;1777173;80;21684;-68
2021/01/01 03:23:05;;;;;;;65.08;37.13;;;;;;;5.76;100.00;98937.64;1777309;79;21165;-70
2021/01/01 03:25:33;;;;;;;51.80;26.68;;;;;;;5.79;100.00;98937.19;1802688;79;23587;-71
2021/01/01 03:28:00;;;;;;;66.85;36.30;;;;;;;5.85;100.00;98932.77;1808985;79;21099;-70
2021/01/01 03:30:28;;;;;;;60.58;37.33;;;;;;;5.90;100.00;98933.67;1808197;79;21000;-69
2021/01/01 03:32:55;;;;;;;58.65;31.42;;;;;;;5.94;100.00;98936.70;1803614;79;21048;-70
2021/01/01 03:35:26;;;;;;;62.67;37.00;;;;;;;5.93;100.00;98937.74;1777721;79;21142;-69
2021/01/01 03:37:53;;;;;;;64.60;38.28;;;;;;;5.93;100.00;98931.88;1800797;79;22173;-70
2021/01/01 03:40:22;;;;;;;60.63;35.88;;;;;;;5.94;100.00;98924.69;1798655;79;21126;-70
2021/01/01 03:42:50;;;;;;;54.58;31.57;;;;;;;5.94;100.00;98922.02;1777095;80;21134;-68
2021/01/01 03:45:17;;;;;;;52.15;29.18;;;;;;;5.95;100.00;98926.29;1777764;79;21177;-68
2021/01/01 03:47:45;;;;;;;62.35;33.85;;;;;;;5.95;100.00;98926.29;1777363;79;21592;-71
2021/01/01 03:50:12;;;;;;;61.15;34.53;;;;;;;5.91;100.00;98927.81;1777652;79;21335;-70
2021/01/01 03:52:40;;;;;;;60.00;33.15;;;;;;;5.89;100.00;98918.73;1777022;80;21584;-70
2021/01/01 03:55:09;;;;;;;57.70;34.08;;;;;;;5.94;100.00;98908.67;1799607;79;21113;-70
2021/01/01 03:57:36;;;;;;;60.03;34.58;;;;;;;5.94;100.00;98910.83;1807051;79;21103;-71
2021/01/01 04:00:05;;;;;;;51.75;31.77;;;;;;;5.96;100.00;98902.56;1801384;79;21121;-70
2021/01/01 04:02:35;;;;;;;56.13;31.82;;;;;;;5.97;100.00;98906.34;1807679;79;21369;-68
2021/01/01 04:05:05;;;;;;;55.30;34.55;;;;;;;5.94;100.00;98904.16;1787691;79;21145;-69
2021/01/01 04:07:32;;;;;;;56.13;35.38;;;;;;;5.94;100.00;98898.81;1777933;79;21607;-68
2021/01/01 04:10:00;;;;;;;52.08;33.25;;;;;;;5.94;100.00;98896.67;1781370;79;21624;-71
2021/01/01 04:12:27;;;;;;;54.42;33.02;;;;;;;5.97;100.00;98908.19;1800934;79;21536;-69
2021/01/01 04:14:54;;;;;;;47.70;31.05;;;;;;;6.02;100.00;98901.61;1808994;79;21199;-70
2021/01/01 04:17:22;;;;;;;45.45;29.98;;;;;;;6.06;100.00;98892.07;1808985;79;21770;-71
2021/01/01 04:19:49;;;;;;;46.77;26.20;;;;;;;6.00;100.00;98901.84;1806729;79;21082;-68
2021/01/01 04:22:17;;;;;;;46.15;30.10;;;;;;;6.01;100.00;98895.45;1777162;80;21030;-69
2021/01/01 04:24:44;;;;;;;43.45;28.55;;;;;;;6.03;100.00;98888.55;1778095;79;21184;-70
2021/01/01 04:27:14;;;;;;;55.60;33.02;;;;;;;5.97;100.00;98887.66;1777196;80;21380;-69
2021/01/01 04:29:41;;;;;;;50.80;33.23;;;;;;;5.99;100.00;98890.91;1796280;79;21169;-69
2021/01/01 04:32:08;;;;;;;48.08;31.90;;;;;;;5.96;100.00;98886.02;1777805;79;21031;-70
2021/01/01 04:34:36;;;;;;;41.60;28.35;;;;;;;5.96;100.00;98878.55;1801625;79;21615;-71
2021/01/01 04:37:03;;;;;;;49.38;30.92;;;;;;;5.93;100.00;98878.52;1809256;79;21512;-70
2021/01/01 04:39:32;;;;;;;42.27;29.67;;;;;;;5.89;100.00;98880.05;1809247;79;21195;-69
2021/01/01 04:42:00;;;;;;;45.60;28.25;;;;;;;5.89;100.00;98874.70;1809441;79;22013;-71
2021/01/01 04:44:28;;;;;;;38.92;25.62;;;;;;;5.91;100.00;98886.45;1807874;79;21118;-70
2021/01/01 04:46:55;;;;;;;35.48;24.25;;;;;;;5.89;100.00;98876.56;1809022;79;21134;-69
2021/01/01 04:49:24;;;;;;;36.83;23.77;;;;;;;5.91;100.00;98871.26;1813184;78;21560;-71
2021/01/01 04:51:51;;;;;;;43.78;29.90;;;;;;;5.91;100.00;98871.78;1815635;79;21195;-70
2021/01/01 04:54:19;;;;;;;39.85;26.48;;;;;;;5.91;100.00;98870.44;1801037;79;21583;-70
2021/01/01 04:56:49;;;;;;;40.75;26.60;;;;;;;5.94;100.00;98872.13;1784556;80;21763;-70
2021/01/01 04:59:17;;;;;;;41.75;25.80;;;;;;;5.96;100.00;98877.20;1784492;79;21137;-73
2021/01/01 05:01:45;;;;;;;45.50;26.77;;;;;;;5.92;100.00;98880.89;1813374;79;21193;-70
2021/01/01 05:04:13;;;;;;;43.28;26.85;;;;;;;5.85;100.00;98864.72;1816505;79;23401;-70
2021/01/01 05:06:42;;;;;;;47.03;31.25;;;;;;;5.79;100.00;98856.33;1815526;78;21134;-72
2021/01/01 05:09:13;;;;;;;39.45;28.05;;;;;;;5.74;100.00;98860.23;1816635;79;21552;-71
2021/01/01 05:11:40;;;;;;;34.92;22.30;;;;;;;5.74;100.00;98840.23;1787643;79;22240;-71
2021/01/01 05:14:08;;;;;;;37.42;25.37;;;;;;;5.74;100.00;98837.56;1784300;80;21166;-70
2021/01/01 05:16:36;;;;;;;40.15;23.25;;;;;;;5.78;100.00;98844.84;1784361;80;21179;-72
2021/01/01 05:19:11;;;;;;;41.00;25.40;;;;;;;5.78;100.00;98851.52;1796951;79;21106;-71
2021/01/01 05:21:38;;;;;;;41.65;26.07;;;;;;;5.79;100.00;98866.48;1788495;79;20990;-71
2021/01/01 05:24:07;;;;;;;32.67;22.13;;;;;;;5.76;100.00;98842.12;1784334;80;21105;-72
2021/01/01 05:26:35;;;;;;;37.98;25.30;;;;;;;5.77;100.00;98843.74;1784425;80;21639;-69
2021/01/01 05:29:06;;;;;;;30.60;23.52;;;;;;;5.81;100.00;98834.20;1784419;80;21333;-71
2021/01/01 05:31:40;;;;;;;32.35;24.95;;;;;;;5.78;100.00;98837.36;1785197;79;21574;-72
2021/01/01 05:34:10;;;;;;;32.93;21.82;;;;;;;5.77;100.00;98829.88;1784291;80;21097;-72
2021/01/01 05:36:45;;;;;;;34.10;24.20;;;;;;;5.73;100.00;98842.09;1784397;80;21165;-70
2021/01/01 05:39:21;;;;;;;31.87;22.25;;;;;;;5.73;100.00;98831.94;1785124;79;21094;-71
2021/01/01 05:41:52;;;;;;;27.07;18.10;;;;;;;5.74;100.00;98830.89;1810941;79;22069;-70
2021/01/01 05:44:33;;;;;;;32.15;24.05;;;;;;;5.75;100.00;98834.66;1816350;79;21129;-71
2021/01/01 05:47:06;;;;;;;29.32;22.95;;;;;;;5.71;100.00;98838.83;1816351;79;21144;-73
2021/01/01 05:49:42;;;;;;;38.35;25.05;;;;;;;5.73;100.00;98838.60;1815948;78;22066;-68
2021/01/01 05:52:25;;;;;;;28.55;20.95;;;;;;;5.74;100.00;98830.89;1786024;79;21133;-69
2021/01/01 05:55:00;;;;;;;28.67;21.30;;;;;;;5.71;100.00;98834.83;1784495;80;22253;-67
2021/01/01 05:57:39;;;;;;;30.95;20.82;;;;;;;5.72;100.00;98825.78;1784310;80;21110;-69
2021/01/01 06:00:09;;;;;;;37.90;28.32;;;;;;;5.72;100.00;98824.45;1785369;79;21729;-70
2021/01/01 06:02:40;;;;;;;34.38;23.10;;;;;;;5.71;100.00;98828.16;1784329;80;21197;-69
2021/01/01 06:05:10;;;;;;;34.95;23.75;;;;;;;5.70;100.00;98817.23;1784142;80;21125;-69
2021/01/01 06:07:41;;;;;;;46.08;27.37;;;;;;;5.68;100.00;98818.80;1784446;79;22346;-69
2021/01/01 06:10:10;;;;;;;38.13;25.12;;;;;;;5.65;100.00;98827.28;1787071;79;21050;-69
2021/01/01 06:12:39;;;;;;;44.60;29.42;;;;;;;5.67;100.00;98831.84;1784939;79;21216;-69
2021/01/01 06:15:09;;;;;;;35.13;24.12;;;;;;;5.64;100.00;98825.66;1815353;79;21138;-70
2021/01/01 06:17:51;;;;;;;37.25;24.75;;;;;;;5.64;100.00;98827.00;1815546;79;21142;-69
2021/01/01 06:20:21;;;;;;;31.27;20.80;;;;;;;5.62;100.00;98821.59;1799400;79;21380;-70
2021/01/01 06:23:02;;;;;;;43.13;27.20;;;;;;;5.67;100.00;98825.70;1816595;79;21141;-70
2021/01/01 06:25:30;;;;;;;36.93;25.23;;;;;;;5.65;100.00;98810.47;1816502;79;21014;-69
2021/01/01 06:28:00;;;;;;;46.15;27.58;;;;;;;5.64;100.00;98820.84;1816034;79;21137;-71
2021/01/01 06:30:28;;;;;;;32.80;20.92;;;;;;;5.62;100.00;98826.93;1793589;79;22330;-70
2021/01/01 06:32:57;;;;;;;40.67;26.40;;;;;;;5.64;100.00;98820.33;1742643;81;21369;-74
2021/01/01 06:35:25;;;;;;;37.90;22.93;;;;;;;5.65;100.00;98815.28;1721664;82;21624;-69
2021/01/01 06:37:54;;;;;;;38.78;25.23;;;;;;;5.62;100.00;98814.93;1719043;82;21123;-70
2021/01/01 06:40:27;;;;;;;34.73;22.85;;;;;;;5.63;100.00;98812.55;1726758;82;21139;-69
2021/01/01 06:43:01;;;;;;;34.95;23.73;;;;;;;5.63;100.00;98816.03;1747643;82;21150;-68
2021/01/01 06:45:45;;;;;;;35.00;20.37;;;;;;;5.61;100.00;98811.45;1747661;82;21195;-68
2021/01/01 06:48:24;;;;;;;39.13;28.20;;;;;;;5.67;100.00;98813.17;1747591;82;21604;-69
2021/01/01 06:50:52;;;;;;;41.95;25.05;;;;;;;5.72;100.00;98811.12;1729163;82;21134;-68
2021/01/01 06:53:28;;;;;;;47.70;28.50;;;;;;;5.72;100.00;98808.45;1718340;83;21186;-68
2021/01/01 06:56:12;;;;;;;43.78;29.90;;;;;;;5.70;100.00;98810.56;1718488;83;21210;-67
2021/01/01 06:58:40;;;;;;;39.38;25.35;;;;;;;5.65;100.00;98811.28;1737115;82;22292;-68
2021/01/01 07:01:27;;;;;;;38.35;23.67;;;;;;;5.66;100.00;98811.55;1725167;82;21016;-69
2021/01/01 07:03:55;;;;;;;31.15;21.97;;;;;;;5.67;100.00;98811.83;1680592;85;21147;-70
2021/01/01 07:06:31;;;;;;;33.75;23.77;;;;;;;5.67;100.00;98817.69;1680904;84;21669;-69
2021/01/01 07:08:59;;;;;;;30.23;21.60;;;;;;;5.68;100.00;98813.98;1683376;85;21479;-69
2021/01/01 07:11:34;;;;;;;33.53;24.43;;;;;;;5.71;100.00;98811.64;1671790;84;21445;-68
2021/01/01 07:14:06;;;;;;;36.28;24.77;;;;;;;5.69;100.00;98815.09;1667192;86;21632;-68
2021/01/01 07:16:41;;;;;;;31.65;21.65;;;;;;;5.65;100.00;98817.95;1664528;85;21133;-66
2021/01/01 07:19:08;;;;;;;30.17;18.45;;;;;;;5.67;100.00;98820.36;1658613;86;21194;-67
2021/01/01 07:21:37;;;;;;;32.65;22.80;;;;;;;5.71;100.00;98821.49;1669369;84;21145;-68
2021/01/01 07:24:07;;;;;;;25.92;16.37;;;;;;;5.70;100.00;98819.90;1672010;85;23559;-68
2021/01/01 07:26:35;;;;;;;39.08;24.18;;;;;;;5.66;100.00;98818.21;1658691;86;21661;-68
2021/01/01 07:29:03;;;;;;;38.60;24.35;;;;;;;5.70;100.00;98822.05;1658726;86;21713;-68
2021/01/01 07:31:31;;;;;;;39.35;25.90;;;;;;;5.72;100.00;98823.12;1668479;85;21159;-67
2021/01/01 07:34:08;;;;;;;33.40;20.85;;;;;;;5.73;100.00;98823.41;1663761;85;21198;-67
2021/01/01 07:36:36;;;;;;;29.90;20.72;;;;;;;5.79;100.00;98828.31;1641246;87;21264;-68
2021/01/01 07:39:05;;;;;;;37.83;22.62;;;;;;;5.80;100.00;98826.75;1665758;84;21636;-69
2021/01/01 07:41:32;;;;;;;33.65;19.05;;;;;;;5.82;100.00;98824.64;1671818;85;21171;-70
2021/01/01 07:44:02;;;;;;;34.35;21.12;;;;;;;5.82;100.00;98835.83;1686045;85;37714;-68
2021/01/01 07:46:32;;;;;;;38.83;24.35;;;;;;;5.81;100.00;98833.69;1686577;85;21159;-69
2021/01/01 07:49:01;;;;;;;39.35;22.75;;;;;;;5.82;100.00;98834.50;1686942;85;21382;-68
2021/01/01 07:51:29;;;;;;;30.52;21.45;;;;;;;5.82;100.00;98833.97;1685350;85;21710;-68
2021/01/01 07:53:59;;;;;;;38.55;20.90;;;;;;;5.85;100.00;98840.70;1652886;86;21057;-69
2021/01/01 07:56:28;;;;;;;33.45;22.95;;;;;;;5.85;100.00;98834.81;1655379;86;21187;-68
2021/01/01 07:58:56;;;;;;;32.50;21.55;;;;;;;5.88;100.00;98836.24;1652771;86;21230;-68
2021/01/01 08:01:24;;;;;;;31.02;21.85;;;;;;;5.87;100.00;98839.95;1670467;85;23536;-71
2021/01/01 08:03:51;;;;;;;34.55;23.05;;;;;;;5.89;100.00;98840.02;1627386;86;21119;-69
2021/01/01 08:06:19;;;;;;;33.53;22.55;;;;;;;5.90;100.00;98841.61;1654122;85;21080;-67
2021/01/01 08:08:47;;;;;;;33.05;22.82;;;;;;;5.91;100.00;98839.75;1655261;85;21190;-67
2021/01/01 08:11:15;;;;;;;36.08;23.32;;;;;;;5.93;100.00;98833.14;1654585;85;21609;-68
2021/01/01 08:13:42;;;;;;;26.80;18.10;;;;;;;5.94;100.00;98837.96;1654353;86;21459;-68
2021/01/01 08:16:16;;;;;;;33.98;21.75;;;;;;;5.94;100.00;98830.77;1676536;85;21179;-68
2021/01/01 08:18:43;;;;;;;36.17;20.80;;;;;;;5.95;100.00;98839.55;1673787;85;21178;-68
2021/01/01 08:21:10;;;;;;;35.17;21.33;;;;;;;5.94;100.00;98833.44;1663422;85;21180;-68
2021/01/01 08:24:05;;;;;;;33.35;22.35;;;;;;;5.98;100.00;98839.09;1647131;85;21176;-68
2021/01/01 08:26:36;;;;;;;27.73;19.73;;;;;;;5.99;100.00;98846.87;1682530;85;21319;-68
2021/01/01 08:29:04;;;;;;;23.98;17.20;;;;;;;6.03;100.00;98846.66;1653931;86;21160;-68
2021/01/01 08:31:31;;;;;;;33.33;20.20;;;;;;;6.06;100.00;98845.36;1655493;85;21187;-67
2021/01/01 08:33:59;;;;;;;29.75;19.35;;;;;;;6.08;100.00;98852.09;1660884;85;21652;-66
2021/01/01 08:36:34;;;;;;;24.47;17.70;;;;;;;6.14;100.00;98854.30;1664934;85;21138;-67
2021/01/01 08:39:11;;;;;;;23.38;17.07;;;;;;;6.20;100.00;98848.52;1669633;85;21406;-67
2021/01/01 08:41:46;;;;;;;25.75;17.12;;;;;;;6.27;100.00;98854.53;1666282;85;21214;-69
2021/01/01 08:44:16;;;;;;;26.02;17.95;;;;;;;6.30;100.00;98851.36;1671486;85;21195;-68
2021/01/01 08:46:44;;;;;;;24.98;16.60;;;;;;;6.32;100.00;98852.75;1654121;85;22348;-67
2021/01/01 08:49:20;;;;;;;25.02;16.23;;;;;;;6.39;100.00;98864.59;1664957;85;21244;-69
2021/01/01 08:51:49;;;;;;;25.48;17.45;;;;;;;6.43;100.00;98860.38;1658298;85;21351;-68
2021/01/01 08:54:23;;;;;;;17.77;13.53;;;;;;;6.47;100.00;98865.54;1657548;86;21939;-68
2021/01/01 08:56:59;;;;;;;20.12;15.58;;;;;;;6.53;100.00;98863.21;1670204;85;26610;-71
2021/01/01 08:59:28;;;;;;;19.95;13.40;;;;;;;6.60;100.00;98868.40;1661784;85;21164;-68
2021/01/01 09:01:56;;;;;;;22.45;14.30;;;;;;;6.69;100.00;98875.76;1655566;85;21211;-67
2021/01/01 09:04:29;;;;;;;21.82;14.93;;;;;;;6.70;100.00;98876.05;1657551;84;21395;-70
2021/01/01 09:07:02;;;;;;;22.55;13.60;;;;;;;6.75;100.00;98865.95;1658152;85;21212;-68
2021/01/01 09:09:32;;;;;;;21.45;12.93;;;;;;;6.79;100.00;98873.77;1672842;85;21036;-69
2021/01/01 09:12:20;;;;;;;20.70;15.53;;;;;;;6.84;100.00;98871.16;1661703;85;21644;-68
2021/01/01 09:14:54;;;;;;;22.65;15.48;;;;;;;6.90;100.00;98879.55;1652114;85;21136;-66
2021/01/01 09:17:24;;;;;;;21.20;14.50;;;;;;;6.95;100.00;98872.38;1649013;85;21397;-68
2021/01/01 09:20:05;;;;;;;21.55;13.83;;;;;;;7.01;100.00;98884.77;1667723;85;21529;-69
2021/01/01 09:22:35;;;;;;;20.27;13.80;;;;;;;7.09;100.00;98901.45;1669136;85;21170;-68
2021/01/01 09:25:23;;;;;;;17.23;12.30;;;;;;;7.18;100.00;98892.77;1673270;85;21132;-68
2021/01/01 09:27:52;;;;;;;19.00;15.35;;;;;;;7.24;100.00;98888.30;1653366;85;21248;-70
2021/01/01 09:30:27;;;;;;;21.50;14.23;;;;;;;7.29;100.00;98887.03;1651735;85;21393;-70
2021/01/01 09:33:01;;;;;;;17.55;13.30;;;;;;;7.33;100.00;98892.97;1668197;85;21195;-68
2021/01/01 09:35:30;;;;;;;20.35;15.63;;;;;;;7.39;100.00;98895.97;1670059;85;21171;-70
2021/01/01 09:38:03;;;;;;;19.85;15.48;;;;;;;7.44;100.00;98896.03;1656330;85;21574;-69
2021/01/01 09:40:34;;;;;;;22.48;15.32;;;;;;;7.46;100.00;98893.12;1657473;85;21144;-67
2021/01/01 09:43:04;;;;;;;25.37;14.35;;;;;;;7.53;100.00;98903.64;1655676;86;22308;-68
2021/01/01 09:45:35;;;;;;;17.32;12.63;;;;;;;7.58;100.00;98898.36;1649702;86;21244;-68
2021/01/01 09:48:04;;;;;;;19.75;14.80;;;;;;;7.60;100.00;98894.36;1663078;85;21164;-70
2021/01/01 09:50:32;;;;;;;21.97;14.13;;;;;;;7.63;100.00;98893.03;1655404;85;21225;-67
2021/01/01 09:53:01;;;;;;;20.08;12.28;;;;;;;7.68;100.00;98898.45;1649333;87;21179;-68
2021/01/01 09:55:31;;;;;;;20.88;14.13;;;;;;;7.74;100.00;98902.81;1649454;87;22806;-68
2021/01/01 09:57:59;;;;;;;21.85;14.47;;;;;;;7.79;100.00;98893.50;1664042;85;21053;-67
2021/01/01 10:00:29;;;;;;;17.12;13.60;;;;;;;7.82;100.00;98903.16;1665493;85;21179;-68
2021/01/01 10:02:57;;;;;;;15.03;12.47;;;;;;;7.86;100.00;98909.63;1671124;85;21176;-71
2021/01/01 10:05:25;;;;;;;18.32;12.50;;;;;;;7.93;100.00;98900.59;1680246;84;21586;-74
2021/01/01 10:07:53;;;;;;;18.37;12.98;;;;;;;7.97;100.00;98899.84;1644210;85;21302;-67
2021/01/01 10:10:21;;;;;;;13.53;11.48;;;;;;;8.00;100.00;98899.36;1658376;85;21214;-72
2021/01/01 10:12:48;;;;;;;16.00;11.78;;;;;;;8.06;100.00;98905.02;1662365;85;21095;-69
2021/01/01 10:15:16;;;;;;;24.37;17.05;;;;;;;8.09;100.00;98899.70;1665439;85;21168;-68
2021/01/01 10:17:43;;;;;;;20.43;12.10;;;;;;;8.10;100.00;98901.33;1679934;85;21153;-65
2021/01/01 10:20:13;;;;;;;17.55;13.18;;;;;;;8.14;100.00;98905.11;1678984;84;22787;-71
2021/01/01 10:22:41;;;;;;;16.67;12.20;;;;;;;8.13;100.00;98908.84;1665361;85;21228;-66
2021/01/01 10:25:11;;;;;;;17.77;12.65;;;;;;;8.13;100.00;98911.00;1667977;84;21217;-71
2021/01/01 10:27:38;;;;;;;15.88;12.80;;;;;;;8.14;100.00;98911.28;1666102;85;21120;-69
2021/01/01 10:30:08;;;;;;;17.73;13.72;;;;;;;8.15;100.00;98904.84;1658738;85;21158;-69
2021/01/01 10:32:36;;;;;;;19.45;13.72;;;;;;;8.17;100.00;98910.77;1658833;86;21230;-66
2021/01/01 10:35:06;;;;;;;18.65;13.25;;;;;;;8.23;100.00;98914.30;1651246;86;21189;-69
2021/01/01 10:37:33;;;;;;;16.57;11.40;;;;;;;8.26;100.00;98916.47;1668954;86;21153;-71
2021/01/01 10:40:03;;;;;;;13.78;10.65;;;;;;;8.34;100.00;98917.40;1666828;85;21031;-71
2021/01/01 10:42:30;;;;;;;13.20;10.95;;;;;;;8.38;100.00;98918.50;1670084;85;21201;-71
2021/01/01 10:44:58;;;;;;;16.17;12.15;;;;;;;8.35;100.00;98924.34;1658736;86;21390;-72
2021/01/01 10:47:26;;;;;;;14.00;10.65;;;;;;;8.35;100.00;98928.89;1658518;86;21197;-68
2021/01/01 10:49:54;;;;;;;18.23;12.45;;;;;;;8.36;100.00;98919.80;1656584;85;21199;-67
2021/01/01 10:52:21;;;;;;;14.47;11.65;;;;;;;8.35;100.00;98922.20;1657926;85;21769;-67
2021/01/01 10:54:48;;;;;;;13.72;10.78;;;;;;;8.37;100.00;98926.25;1659935;85;21130;-68
2021/01/01 10:57:17;;;;;;;19.57;14.07;;;;;;;8.39;100.00;98929.50;1631619;86;21268;-66
2021/01/01 10:59:44;;;;;;;16.60;12.90;;;;;;;8.42;100.00;98928.17;1631663;86;21221;-66
2021/01/01 11:02:12;;;;;;;13.18;10.28;;;;;;;8.38;100.00;98931.09;1631719;88;21201;-67
2021/01/01 11:04:41;;;;;;;15.00;12.85;;;;;;;8.39;100.00;98928.16;1649220;85;21079;-67
2021/01/01 11:07:09;;;;;;;13.40;9.95;;;;;;;8.40;100.00;98930.28;1646646;87;21252;-67
2021/01/01 11:09:36;;;;;;;16.85;13.20;;;;;;;8.43;100.00;98935.16;1655402;86;22162;-68
2021/01/01 11:12:07;;;;;;;15.25;13.48;;;;;;;8.40;100.00;98937.80;1650558;87;22090;-70
2021/01/01 12:24:25;;;;;;;17.80;12.47;;;;;;;9.37;100.00;98977.70;1638716;87;21200;-68
2021/01/01 12:26:46;;;;;;;18.50;11.78;;;;;;;9.37;100.00;98982.25;1638786;87;21165;-66
2021/01/01 12:29:14;;;;;;;14.43;10.98;;;;;;;9.37;100.00;98990.30;1638736;87;21244;-66
2021/01/01 12:31:42;;;;;;;13.78;11.45;;;;;;;9.36;100.00;98992.17;1690023;84;21390;-65
2021/01/01 12:34:09;;;;;;;12.93;11.63;;;;;;;9.33;100.00;98992.70;1693877;84;21946;-66
2021/01/01 12:36:37;;;;;;;16.10;14.23;;;;;;;9.31;100.00;98989.45;1693834;84;21137;-68